AirNav   Phillips 66 Aviation Fuel
 
 452 users online  

CYQG Windsor Airport
Windsor, Ontario, Canada

GOING TO WINDSOR?


FAA INFORMATION EFFECTIVE 19 JULY 2018

The information below comes from the U.S. Federal Avaition Administration (FAA). The FAA is not the official source of data for facilities located outside the United States, and THESE RECORDS ARE LIKELY NOT COMPLETE OR CORRECT.

Location

FAA Identifier: CYQG
Lat/Long: 42-16-33.1111N / 082-57-27.5347W
42-16.551852N / 082-57.458912W
42.2758642 / -82.9576485
(estimated)
Elevation: 622 ft. / 190 m (estimated)
Variation: 07W ()
Time zone: UTC -4 (UTC -5 during Standard Time)
Zip code: 48243

Airport Operations

Airport use: Open to the public
Activation date: 03/2005
Control tower: no
ARTCC: CLEVELAND CENTER
FSS: LONDON FIC FLIGHT SERVICE STATION
Attendance: 
Segmented circle: no

Airport Communications

WX ASOS at DET (8 nm N): PHONE 313-371-9696
WX AWOS-3 at ONZ (14 nm SW): 119.675 (734-692-9686)
WX ASOS at DTW (18 nm W): PHONE 734-955-5015
WX AWOS-3 at VLL (19 nm NW): 119.475 (248-288-4649)

Nearby radio navigation aids

VOR radial/distance  VOR name  Freq  Var
YQGr291/5.9WINDSOR VOR/DME113.8006W
DXOr084/18.6DETROIT VOR/DME113.4006W
CRLr061/26.1CARLETON VOR/DME115.7003W
SVMr109/29.3SALEM VORTAC114.3003W
PSIr138/36.0PONTIAC VORTAC111.0003W

 
NDB name  Hdg/Dist  Freq  Var  ID
CARGL187/4.823005WVQ ...- --.-
GROSSE ILE047/13.641907WRYS .-. -.-- ...
MADDS160/14.433805WDE -.. .

Airport Services

Runway Information

Runway 7/25

Dimensions: 9000 x 200 ft. / 2743 x 61 m
Surface: asphalt
RUNWAY 7  RUNWAY 25
Latitude: 42-16.404018N42-17.086803N
Longitude: 082-58.209487W082-56.438652W
Elevation: 622.0 ft.608.0 ft.
Traffic pattern: leftleft
Runway heading: 070 magnetic, 063 true250 magnetic, 243 true
Displaced threshold: 901 ft.1143 ft.
Touchdown point: yes, no lightsyes, no lights

Runway 12/30

Dimensions: 5150 x 150 ft. / 1570 x 46 m
Surface: asphalt
RUNWAY 12  RUNWAY 30
Latitude: 42-16.396830N42-16.030400N
Longitude: 082-58.209295W082-57.179820W
Elevation: 622.0 ft.619.0 ft.
Traffic pattern: leftleft
Runway heading: 123 magnetic, 116 true303 magnetic, 296 true
Displaced threshold: 570 ft.321 ft.
Touchdown point: yes, no lightsyes, no lights

Airport Ownership and Management from official FAA records

Ownership: Publicly-owned

Instrument Procedures

There are no published instrument procedures at CYQG.

Some nearby airports with instrument procedures:

KDET - Coleman A Young Municipal Airport (8 nm N)
KONZ - Grosse Ile Municipal Airport (14 nm SW)
KDTW - Detroit Metropolitan Wayne County Airport (18 nm W)
KVLL - Oakland/Troy Airport (19 nm NW)
KMTC - Selfridge Air National Guard Base (21 nm N)
 
Loc | Ops | Rwys | IFR | FBO | Links
Com | Nav | Svcs | Stats | Notes


 
Aerial photo
No photo
 
Airport distance calculator
Flying to Windsor Airport? Find the distance to fly.

From to CYQG

Sunrise and sunset
Times for 21-Jul-2018
 Local
(UTC-4)
 Zulu
(UTC)
Morning civil twilight05:4209:42
Sunrise06:1510:15
Sunset21:0201:02
Evening civil twilight21:3401:34

Current date and time
Zulu (UTC)  21-Jul-2018 10:20:56
Local (UTC-4)  21-Jul-2018 06:20:56
 
METAR
CYQG 210900Z 15008KT 15SM OVC022 21/18 A2973 RMK SC8 SLP066 DENSITY ALT 1700FT
KDET 
8nm N 
210953Z 18009KT 10SM OVC022 22/17 A2974 RMK AO2 SLP067 T02170172
KONZ 
14nm SW 
210955Z AUTO 17008KT 10SM OVC015 21/18 A2973 RMK AO2 T02120182
CXHA 
15nm S 
210900Z AUTO 17008KT 21/18 RMK AO1 SLP057 T02110176 56011
KDTW 
17nm W 
211002Z 16004KT 3SM -RA BR FEW009 BKN014 OVC023 20/18 A2974 RMK AO2 P0000 T02000178
KVLL 
19nm NW 
210955Z AUTO 13005KT 10SM OVC020 22/18 A2976 RMK AO2 T02180176
TAF
CYQG 210539Z 2106/2206 17008KT P6SM SCT060 OVC160 TEMPO 2106/2114 4SM -SHRA BR BKN050 OVC160 PROB40 2106/2113 OVC007 FM211400 15012KT P6SM SCT015 BKN040 TEMPO 2114/2118 6SM -SHRA BR OVC015 FM211800 14010KT P6SM -SHRA BKN025 PROB30 2118/2205 2SM +TSRA BR OVC020CB FM220500 11010KT P6SM BKN020 RMK NXT FCST BY 211200Z
KDET 
8nm N 
210527Z 2106/2206 16007KT P6SM VCSH SCT018 BKN040 OVC060 FM210800 15010KT P6SM VCSH SCT008 BKN014 OVC030 FM211400 14008KT 6SM SHRA BR SCT012 BKN022 OVC045 FM212100 11008KT P6SM -SHRA SCT028 BKN040 BKN080 FM220300 09006KT P6SM VCSH BKN022 OVC040
KDTW 
17nm W 
210743Z 2108/2212 15007KT P6SM VCSH BKN018 BKN040 OVC060 FM211400 14008KT 6SM SHRA BR SCT012 BKN022 OVC045 FM212100 11008KT P6SM -SHRA SCT028 BKN040 BKN080 FM220300 09006KT P6SM VCSH BKN022 OVC040
NOTAMs
Click for the latest NOTAMs
NOTAMs are issued by the DoD/FAA and will open in a separate window not controlled by AirNav.

 

 
 

Would you like to see your business listed on this page?

 If your business provides an interesting product or service to pilots, flight crews, aircraft, or users of the Windsor Airport, you should consider listing it here.  To start the listing process, click on the button below
 
Add a business
 

Other Pages about Windsor Airport

Update a link
 
Copyright © AirNav, LLC. All rights reserved. Privacy Policy  Contact